Time;durP1;ratioP1;P1;durP2;ratioP2;P2;SDS_P1;SDS_P2;PMS_P1;PMS_P2;Temp;Humidity;BMP_temperature;BMP_pressure;BME280_temperature;BME280_humidity;BME280_pressure;Samples;Min_cycle;Max_cycle;Signal;HPM_P1;HPM_P2
2022/05/28 00:01:09;;;;;;;9.43;2.67;;;;;;;;;;5025564;28;20430;-84
2022/05/28 00:03:35;;;;;;;15.60;4.40;;;;;;;;;;5027876;28;20481;-85
2022/05/28 00:06:02;;;;;;;12.27;5.40;;;;;;;;;;5029805;28;20429;-84
2022/05/28 00:08:29;;;;;;;12.73;6.05;;;;;;;;;;5028235;28;20425;-85
2022/05/28 00:10:57;;;;;;;20.45;10.88;;;;;;;;;;5028451;28;20461;-85
2022/05/28 00:13:24;;;;;;;17.65;12.10;;;;;;;;;;5027926;28;20427;-84
2022/05/28 00:15:50;;;;;;;17.58;11.00;;;;;;;;;;5029568;28;20424;-84
2022/05/28 00:18:16;;;;;;;17.15;10.10;;;;;;;;;;5025449;28;20437;-84
2022/05/28 00:20:43;;;;;;;23.33;15.32;;;;;;;;;;5026895;28;20435;-84
2022/05/28 00:23:09;;;;;;;34.38;26.42;;;;;;;;;;5027568;28;20429;-85
2022/05/28 00:25:35;;;;;;;52.30;42.78;;;;;;;;;;5028175;28;20458;-87
2022/05/28 00:28:03;;;;;;;41.05;31.73;;;;;;;;;;5029548;28;20423;-84
2022/05/28 00:30:29;;;;;;;26.50;18.40;;;;;;;;;;5031690;28;20451;-85
2022/05/28 00:32:56;;;;;;;19.92;11.60;;;;;;;;;;5028309;28;20423;-84
2022/05/28 00:35:22;;;;;;;17.08;9.02;;;;;;;;;;5030304;28;20457;-85
2022/05/28 00:37:48;;;;;;;14.32;9.18;;;;;;;;;;5027540;28;20474;-85
2022/05/28 00:40:16;;;;;;;14.05;8.07;;;;;;;;;;5029792;28;20435;-85
2022/05/28 00:42:42;;;;;;;16.58;8.88;;;;;;;;;;5028299;28;20427;-85
2022/05/28 00:45:11;;;;;;;17.77;7.00;;;;;;;;;;5027281;28;20914;-85
2022/05/28 00:47:40;;;;;;;12.48;5.97;;;;;;;;;;5031011;28;20950;-85
2022/05/28 00:50:07;;;;;;;13.43;5.20;;;;;;;;;;5028686;28;20431;-85
2022/05/28 00:52:33;;;;;;;7.57;4.10;;;;;;;;;;5025267;28;20435;-84
2022/05/28 00:54:59;;;;;;;12.80;4.17;;;;;;;;;;5026041;28;20427;-84
2022/05/28 00:57:26;;;;;;;13.77;3.70;;;;;;;;;;5026100;28;20442;-83
2022/05/28 00:59:54;;;;;;;9.77;3.50;;;;;;;;;;5026255;28;20436;-84
2022/05/28 01:02:23;;;;;;;17.55;3.50;;;;;;;;;;5025201;28;20423;-84
2022/05/28 01:04:54;;;;;;;12.70;3.10;;;;;;;;;;5026011;28;20521;-84
2022/05/28 01:07:25;;;;;;;11.25;3.00;;;;;;;;;;5025677;28;20483;-84
2022/05/28 01:09:58;;;;;;;7.40;3.00;;;;;;;;;;5025329;28;20434;-86
2022/05/28 01:12:29;;;;;;;9.98;3.55;;;;;;;;;;5025524;28;20415;-84
2022/05/28 01:14:59;;;;;;;8.93;3.40;;;;;;;;;;5026387;28;20462;-84
2022/05/28 01:17:28;;;;;;;8.73;2.90;;;;;;;;;;5024235;28;20444;-86
2022/05/28 01:19:59;;;;;;;17.52;4.13;;;;;;;;;;5027039;28;20440;-84
2022/05/28 01:22:31;;;;;;;9.95;2.90;;;;;;;;;;5025024;28;20454;-85
2022/05/28 01:25:03;;;;;;;10.43;3.47;;;;;;;;;;5027508;28;20481;-85
2022/05/28 01:27:34;;;;;;;10.00;2.77;;;;;;;;;;5025855;28;20493;-85
2022/05/28 01:30:02;;;;;;;12.80;3.83;;;;;;;;;;5027186;28;21083;-84
2022/05/28 01:32:30;;;;;;;11.90;3.40;;;;;;;;;;5027687;28;20506;-84
2022/05/28 01:34:57;;;;;;;11.02;3.70;;;;;;;;;;5030628;28;20491;-84
2022/05/28 01:37:24;;;;;;;14.75;3.92;;;;;;;;;;5029074;28;20427;-84
2022/05/28 01:39:51;;;;;;;11.82;3.53;;;;;;;;;;5029981;28;20437;-84
2022/05/28 01:42:18;;;;;;;9.73;3.88;;;;;;;;;;5029350;28;20427;-84
2022/05/28 01:44:46;;;;;;;7.18;3.17;;;;;;;;;;5030208;28;20438;-83
2022/05/28 01:47:13;;;;;;;10.07;2.63;;;;;;;;;;5028842;28;20479;-84
2022/05/28 01:49:40;;;;;;;11.50;3.90;;;;;;;;;;5028269;28;20480;-85
2022/05/28 01:52:07;;;;;;;9.65;3.00;;;;;;;;;;5028396;28;20431;-85
2022/05/28 01:54:34;;;;;;;11.50;3.40;;;;;;;;;;5026290;28;20937;-85
2022/05/28 01:57:01;;;;;;;11.80;3.17;;;;;;;;;;5029086;28;20474;-86
2022/05/28 01:59:29;;;;;;;10.05;2.60;;;;;;;;;;5029014;28;20434;-85
2022/05/28 02:01:58;;;;;;;13.40;3.05;;;;;;;;;;5028784;28;20425;-85
2022/05/28 02:04:24;;;;;;;9.20;2.75;;;;;;;;;;5026655;28;20453;-86
2022/05/28 02:06:50;;;;;;;9.95;2.83;;;;;;;;;;5027631;28;20430;-87
2022/05/28 02:09:18;;;;;;;10.30;2.72;;;;;;;;;;5034490;28;20488;-85
2022/05/28 02:11:50;;;;;;;13.02;3.38;;;;;;;;;;5031529;28;20419;-84
2022/05/28 02:14:20;;;;;;;10.32;2.90;;;;;;;;;;5033106;28;20762;-84
2022/05/28 02:16:49;;;;;;;12.77;2.92;;;;;;;;;;5033564;28;20401;-84
2022/05/28 02:19:20;;;;;;;10.03;3.20;;;;;;;;;;5032721;28;20437;-84
2022/05/28 02:21:50;;;;;;;16.45;3.25;;;;;;;;;;5032039;28;20451;-84
2022/05/28 02:24:18;;;;;;;12.95;3.28;;;;;;;;;;5032316;28;20518;-84
2022/05/28 02:26:47;;;;;;;14.05;3.35;;;;;;;;;;5033188;28;20489;-84
2022/05/28 02:29:14;;;;;;;10.90;3.17;;;;;;;;;;5033977;28;20442;-86
2022/05/28 02:31:43;;;;;;;12.38;3.65;;;;;;;;;;5033390;28;20652;-85
2022/05/28 02:34:11;;;;;;;12.27;3.30;;;;;;;;;;5033703;28;20420;-85
2022/05/28 02:36:38;;;;;;;16.38;3.40;;;;;;;;;;5028813;28;20439;-86
2022/05/28 02:39:05;;;;;;;8.90;3.60;;;;;;;;;;5032031;28;20443;-85
2022/05/28 02:41:32;;;;;;;10.03;3.33;;;;;;;;;;5029583;28;20442;-84
2022/05/28 02:43:58;;;;;;;12.77;3.30;;;;;;;;;;5034537;22;20566;-80
2022/05/28 02:46:24;;;;;;;14.33;4.60;;;;;;;;;;5021413;28;20456;-85
2022/05/28 02:48:50;;;;;;;14.68;3.80;;;;;;;;;;5023949;28;20459;-84
2022/05/28 02:51:20;;;;;;;16.33;3.78;;;;;;;;;;5024184;28;20436;-82
2022/05/28 02:53:48;;;;;;;16.85;3.30;;;;;;;;;;5022262;28;20477;-80
2022/05/28 02:56:15;;;;;;;12.00;3.47;;;;;;;;;;5018905;28;21478;-81
2022/05/28 02:58:41;;;;;;;13.18;3.70;;;;;;;;;;5018776;28;20441;-82
2022/05/28 03:01:19;;;;;;;14.55;4.28;;;;;;;;;;5018533;28;20485;-79
2022/05/28 03:03:45;;;;;;;15.55;3.72;;;;;;;;;;5018087;28;20427;-81
2022/05/28 03:06:11;;;;;;;16.48;3.85;;;;;;;;;;5019441;28;20482;-81
2022/05/28 03:08:38;;;;;;;9.25;3.00;;;;;;;;;;5020398;28;20435;-82
2022/05/28 03:11:05;;;;;;;11.85;3.33;;;;;;;;;;5020546;28;20428;-80
2022/05/28 03:13:31;;;;;;;14.13;3.88;;;;;;;;;;5021041;28;20419;-79
2022/05/28 03:15:58;;;;;;;18.00;3.70;;;;;;;;;;5019043;28;20925;-81
2022/05/28 03:18:24;;;;;;;11.65;2.70;;;;;;;;;;5021225;28;20996;-81
2022/05/28 03:20:50;;;;;;;13.60;3.40;;;;;;;;;;5020137;28;20472;-80
2022/05/28 03:23:16;;;;;;;15.75;3.50;;;;;;;;;;5019004;28;20427;-81
2022/05/28 03:25:43;;;;;;;14.10;4.00;;;;;;;;;;5020530;28;20441;-80
2022/05/28 03:28:10;;;;;;;10.93;3.10;;;;;;;;;;5019614;28;20478;-79
2022/05/28 03:30:36;;;;;;;12.88;3.60;;;;;;;;;;5020077;28;20992;-82
2022/05/28 03:33:03;;;;;;;8.05;3.00;;;;;;;;;;5018208;28;20423;-82
2022/05/28 03:35:29;;;;;;;12.77;3.00;;;;;;;;;;5020219;28;20497;-83
2022/05/28 03:37:55;;;;;;;9.10;3.30;;;;;;;;;;5018962;28;20501;-80
2022/05/28 03:40:22;;;;;;;14.05;3.70;;;;;;;;;;5019678;28;20443;-78
2022/05/28 03:42:48;;;;;;;13.65;3.65;;;;;;;;;;5020687;28;20860;-82
2022/05/28 03:45:15;;;;;;;11.60;4.00;;;;;;;;;;5018716;28;20432;-80
2022/05/28 03:47:42;;;;;;;10.75;3.70;;;;;;;;;;5018202;28;20493;-81
2022/05/28 03:50:08;;;;;;;15.77;3.80;;;;;;;;;;5019680;28;20440;-80
2022/05/28 03:52:34;;;;;;;14.18;3.58;;;;;;;;;;5019288;28;20844;-82
2022/05/28 03:55:01;;;;;;;15.48;3.95;;;;;;;;;;5018888;28;20491;-79
2022/05/28 03:57:28;;;;;;;13.63;3.60;;;;;;;;;;5019409;28;20529;-80
2022/05/28 03:59:54;;;;;;;14.27;3.67;;;;;;;;;;5020090;28;20444;-81
2022/05/28 04:02:22;;;;;;;16.55;4.05;;;;;;;;;;5018576;28;20496;-81
2022/05/28 04:04:48;;;;;;;14.63;3.97;;;;;;;;;;5018927;28;20494;-79
2022/05/28 04:07:15;;;;;;;14.27;3.40;;;;;;;;;;5020395;28;20434;-81
2022/05/28 04:09:41;;;;;;;11.65;4.10;;;;;;;;;;5020835;28;20411;-80
2022/05/28 04:12:08;;;;;;;18.92;4.10;;;;;;;;;;5019353;28;20475;-80
2022/05/28 04:14:34;;;;;;;19.42;4.00;;;;;;;;;;5020653;28;20850;-80
2022/05/28 04:17:00;;;;;;;16.10;4.83;;;;;;;;;;5020149;28;20418;-81
2022/05/28 04:19:28;;;;;;;15.57;3.80;;;;;;;;;;5019466;28;20448;-81
2022/05/28 04:21:54;;;;;;;13.52;3.60;;;;;;;;;;5018458;28;21100;-81
2022/05/28 04:24:21;;;;;;;16.58;4.07;;;;;;;;;;5021320;28;20944;-79
2022/05/28 04:26:47;;;;;;;15.93;4.80;;;;;;;;;;5018893;28;20470;-83
2022/05/28 04:29:13;;;;;;;16.10;3.88;;;;;;;;;;5020861;28;20498;-80
2022/05/28 04:31:40;;;;;;;15.30;4.30;;;;;;;;;;5020062;28;20459;-82
2022/05/28 04:34:06;;;;;;;13.80;4.45;;;;;;;;;;5020337;28;20430;-80
2022/05/28 04:36:33;;;;;;;10.40;3.22;;;;;;;;;;5020370;28;20429;-79
2022/05/28 04:39:00;;;;;;;16.35;4.50;;;;;;;;;;5019619;28;20430;-81
2022/05/28 04:41:26;;;;;;;12.00;3.67;;;;;;;;;;5017997;28;20440;-83
2022/05/28 04:43:52;;;;;;;14.75;3.85;;;;;;;;;;5016065;28;20478;-81
2022/05/28 04:46:18;;;;;;;21.95;5.32;;;;;;;;;;5020125;28;20483;-82
2022/05/28 04:48:45;;;;;;;19.80;4.57;;;;;;;;;;5013180;28;20438;-81
2022/05/28 04:51:11;;;;;;;12.80;4.30;;;;;;;;;;5019206;28;20501;-81
2022/05/28 04:53:38;;;;;;;14.70;3.80;;;;;;;;;;5016305;28;20483;-82
2022/05/28 04:56:05;;;;;;;10.95;3.20;;;;;;;;;;5019468;28;20431;-82
2022/05/28 04:58:31;;;;;;;9.13;3.00;;;;;;;;;;5014676;28;20942;-79
2022/05/28 05:00:57;;;;;;;8.93;3.60;;;;;;;;;;5020240;28;20437;-82
2022/05/28 05:03:24;;;;;;;9.13;3.60;;;;;;;;;;5021186;28;20478;-83
2022/05/28 05:05:50;;;;;;;13.10;3.80;;;;;;;;;;5024032;28;20527;-82
2022/05/28 05:08:16;;;;;;;17.90;4.18;;;;;;;;;;5024727;28;20423;-82
2022/05/28 05:10:46;;;;;;;12.25;4.03;;;;;;;;;;5025107;28;20506;-83
2022/05/28 05:13:13;;;;;;;15.57;4.30;;;;;;;;;;5023054;28;20494;-82
2022/05/28 05:15:39;;;;;;;17.83;4.60;;;;;;;;;;5021898;28;20442;-82
2022/05/28 05:18:06;;;;;;;16.07;4.60;;;;;;;;;;5022583;28;20429;-82
2022/05/28 05:20:33;;;;;;;12.75;3.97;;;;;;;;;;5023663;28;20457;-80
2022/05/28 05:22:59;;;;;;;17.67;4.60;;;;;;;;;;5023871;28;20415;-83
2022/05/28 05:25:26;;;;;;;16.15;4.88;;;;;;;;;;5022844;28;20477;-79
2022/05/28 05:27:54;;;;;;;18.15;4.55;;;;;;;;;;5020554;28;20463;-81
2022/05/28 05:30:20;;;;;;;16.38;4.80;;;;;;;;;;5023827;28;20431;-81
2022/05/28 05:32:46;;;;;;;17.17;4.97;;;;;;;;;;5023570;28;20486;-83
2022/05/28 05:35:12;;;;;;;21.35;4.85;;;;;;;;;;5024870;28;20446;-83
2022/05/28 05:37:39;;;;;;;20.23;5.35;;;;;;;;;;5023263;28;20458;-81
2022/05/28 05:40:05;;;;;;;17.88;4.95;;;;;;;;;;5024336;28;20446;-80
2022/05/28 05:42:32;;;;;;;14.00;4.70;;;;;;;;;;5023990;28;21001;-82
2022/05/28 05:44:59;;;;;;;18.45;5.20;;;;;;;;;;5025193;28;20485;-81
2022/05/28 05:47:25;;;;;;;16.27;4.50;;;;;;;;;;5023615;28;20510;-80
2022/05/28 05:49:52;;;;;;;14.60;4.28;;;;;;;;;;5025469;28;20436;-81
2022/05/28 05:52:18;;;;;;;14.33;4.67;;;;;;;;;;5024219;28;20431;-84
2022/05/28 05:54:44;;;;;;;18.05;4.90;;;;;;;;;;5026844;28;20415;-79
2022/05/28 05:57:11;;;;;;;13.63;4.13;;;;;;;;;;5025158;28;20465;-82
2022/05/28 05:59:37;;;;;;;21.13;4.50;;;;;;;;;;5027590;28;20445;-82
2022/05/28 06:02:05;;;;;;;13.27;3.85;;;;;;;;;;5025894;28;20431;-82
2022/05/28 06:04:31;;;;;;;14.40;3.88;;;;;;;;;;5025224;28;20430;-82
2022/05/28 06:06:57;;;;;;;15.88;3.97;;;;;;;;;;5025661;28;20483;-82
2022/05/28 06:09:25;;;;;;;14.32;4.00;;;;;;;;;;5027140;28;20423;-79
2022/05/28 06:11:52;;;;;;;11.30;3.70;;;;;;;;;;5022225;28;20444;-80
2022/05/28 06:14:18;;;;;;;12.20;3.80;;;;;;;;;;5027043;28;20439;-82
2022/05/28 06:16:44;;;;;;;9.18;3.15;;;;;;;;;;5026116;28;20513;-81
2022/05/28 06:19:12;;;;;;;18.08;4.07;;;;;;;;;;5025221;28;20811;-80
2022/05/28 06:21:38;;;;;;;14.98;3.90;;;;;;;;;;5025736;28;20411;-82
2022/05/28 06:24:05;;;;;;;11.73;3.70;;;;;;;;;;5021413;28;20496;-81
2022/05/28 06:26:31;;;;;;;14.15;3.97;;;;;;;;;;5026772;28;20455;-81
2022/05/28 06:28:57;;;;;;;13.25;4.05;;;;;;;;;;5027939;28;20844;-81
2022/05/28 06:31:23;;;;;;;13.32;3.70;;;;;;;;;;5027798;28;20439;-82
2022/05/28 06:33:50;;;;;;;16.27;4.45;;;;;;;;;;5028554;28;20418;-81
2022/05/28 06:36:17;;;;;;;17.15;4.70;;;;;;;;;;5028970;28;20431;-80
2022/05/28 06:38:45;;;;;;;18.45;3.83;;;;;;;;;;5021497;28;20472;-79
2022/05/28 06:41:11;;;;;;;13.38;3.63;;;;;;;;;;5022465;28;20424;-81
2022/05/28 06:43:38;;;;;;;10.15;3.55;;;;;;;;;;5020884;28;20443;-80
2022/05/28 06:46:05;;;;;;;13.45;4.40;;;;;;;;;;5023655;28;20447;-80
2022/05/28 06:48:31;;;;;;;15.75;4.28;;;;;;;;;;5021404;28;20417;-81
2022/05/28 06:51:03;;;;;;;19.77;4.00;;;;;;;;;;5023500;28;20422;-82
2022/05/28 06:53:32;;;;;;;15.57;3.83;;;;;;;;;;5021916;28;20424;-80
2022/05/28 06:55:58;;;;;;;16.65;4.80;;;;;;;;;;5022769;28;20425;-81
2022/05/28 06:58:24;;;;;;;13.75;4.50;;;;;;;;;;5021546;28;20819;-80
2022/05/28 07:00:51;;;;;;;18.00;4.50;;;;;;;;;;5021121;28;20854;-81
2022/05/28 07:03:18;;;;;;;15.95;4.60;;;;;;;;;;5021344;28;20420;-81
2022/05/28 07:05:44;;;;;;;15.80;4.55;;;;;;;;;;5022068;28;20444;-79
2022/05/28 07:08:11;;;;;;;18.23;4.70;;;;;;;;;;5019831;28;20988;-82
2022/05/28 07:10:41;;;;;;;16.05;3.92;;;;;;;;;;5022913;28;20415;-80
2022/05/28 07:13:07;;;;;;;15.65;3.92;;;;;;;;;;5019471;28;20793;-80
2022/05/28 07:15:34;;;;;;;15.43;4.40;;;;;;;;;;5020916;28;20432;-81
2022/05/28 07:18:00;;;;;;;13.70;4.38;;;;;;;;;;5019882;28;20423;-79
2022/05/28 07:20:26;;;;;;;18.92;4.38;;;;;;;;;;5021205;28;20492;-80
2022/05/28 07:22:52;;;;;;;9.70;4.28;;;;;;;;;;5021042;28;20493;-80
2022/05/28 07:25:19;;;;;;;14.48;4.70;;;;;;;;;;5018693;28;20494;-80
2022/05/28 07:27:46;;;;;;;12.60;4.13;;;;;;;;;;5019750;28;20777;-80
2022/05/28 07:30:13;;;;;;;13.38;4.38;;;;;;;;;;5020632;28;20849;-79
2022/05/28 07:32:39;;;;;;;14.70;4.40;;;;;;;;;;5022369;28;20487;-81
2022/05/28 07:35:06;;;;;;;15.07;4.88;;;;;;;;;;5022567;28;20428;-81
2022/05/28 07:37:32;;;;;;;21.48;4.80;;;;;;;;;;5022657;28;20423;-81
2022/05/28 07:39:59;;;;;;;17.60;4.33;;;;;;;;;;5022402;28;20435;-82
2022/05/28 07:42:27;;;;;;;16.50;4.10;;;;;;;;;;5022439;28;20415;-82
2022/05/28 07:44:54;;;;;;;13.75;4.22;;;;;;;;;;5020599;28;20442;-82
2022/05/28 07:47:20;;;;;;;18.02;4.80;;;;;;;;;;5021347;28;20423;-82
2022/05/28 07:49:47;;;;;;;12.88;4.05;;;;;;;;;;5021659;28;20467;-81
2022/05/28 07:52:13;;;;;;;10.68;4.00;;;;;;;;;;5022208;28;20426;-82
2022/05/28 07:54:39;;;;;;;19.63;5.15;;;;;;;;;;5022466;28;20507;-82
2022/05/28 07:57:06;;;;;;;10.70;3.95;;;;;;;;;;5018718;28;20431;-83
2022/05/28 07:59:32;;;;;;;14.18;3.85;;;;;;;;;;5015626;28;20498;-78
2022/05/28 08:02:00;;;;;;;13.63;4.00;;;;;;;;;;5021717;28;20416;-80
2022/05/28 08:04:26;;;;;;;16.25;4.25;;;;;;;;;;5022444;28;20842;-82
2022/05/28 08:06:52;;;;;;;13.13;4.00;;;;;;;;;;5019329;28;20481;-81
2022/05/28 08:09:18;;;;;;;11.30;3.50;;;;;;;;;;5022804;28;20416;-81
2022/05/28 08:11:45;;;;;;;11.43;3.20;;;;;;;;;;5022210;28;20416;-78
2022/05/28 08:14:11;;;;;;;14.02;4.00;;;;;;;;;;5022498;28;20457;-79
2022/05/28 08:16:37;;;;;;;11.65;3.60;;;;;;;;;;5022112;28;20856;-82
2022/05/28 08:19:05;;;;;;;15.40;3.90;;;;;;;;;;5022592;28;20432;-80
2022/05/28 08:24:15;;;;;;;13.20;3.90;;;;;;;;;;5020905;28;20435;-80
2022/05/28 08:26:41;;;;;;;16.85;4.00;;;;;;;;;;5022939;28;20422;-81
2022/05/28 08:29:08;;;;;;;9.93;3.47;;;;;;;;;;5018660;28;20431;-80
2022/05/28 08:31:34;;;;;;;11.27;3.42;;;;;;;;;;5010672;28;20510;-79
2022/05/28 08:34:00;;;;;;;4.88;1.98;;;;;;;;;;5019872;28;20440;-80
2022/05/28 08:36:28;;;;;;;10.40;2.80;;;;;;;;;;5018866;28;20511;-80
2022/05/28 08:38:54;;;;;;;7.82;2.47;;;;;;;;;;5022823;28;20462;-81
2022/05/28 08:41:22;;;;;;;11.60;2.65;;;;;;;;;;5025106;28;20440;-79
2022/05/28 08:43:50;;;;;;;11.35;3.15;;;;;;;;;;5027342;28;20840;-80
2022/05/28 08:46:17;;;;;;;11.27;2.65;;;;;;;;;;5080522;23;20439;-81
2022/05/28 08:48:45;;;;;;;9.52;2.88;;;;;;;;;;5058503;28;20413;-84
2022/05/28 08:51:14;;;;;;;12.65;3.33;;;;;;;;;;5060193;28;20435;-83
2022/05/28 08:53:45;;;;;;;10.43;3.10;;;;;;;;;;5061198;28;20421;-81
2022/05/28 08:56:14;;;;;;;13.03;3.50;;;;;;;;;;5060859;28;20413;-83
2022/05/28 08:58:41;;;;;;;12.40;3.42;;;;;;;;;;5058336;28;20428;-82
2022/05/28 09:01:10;;;;;;;8.95;3.25;;;;;;;;;;5058503;28;20417;-81
2022/05/28 09:03:41;;;;;;;14.53;3.70;;;;;;;;;;5055697;28;20476;-83
2022/05/28 09:06:10;;;;;;;13.07;3.97;;;;;;;;;;5058260;28;20457;-82
2022/05/28 09:08:39;;;;;;;14.20;3.85;;;;;;;;;;5057676;28;20437;-83
2022/05/28 09:11:10;;;;;;;13.45;4.00;;;;;;;;;;5059279;28;20436;-80
2022/05/28 09:13:38;;;;;;;13.63;4.28;;;;;;;;;;5060252;28;20417;-82
2022/05/28 09:16:06;;;;;;;15.60;4.30;;;;;;;;;;5060342;28;20419;-81
2022/05/28 09:18:34;;;;;;;9.73;3.28;;;;;;;;;;5059135;28;20417;-81
2022/05/28 09:21:00;;;;;;;9.73;3.13;;;;;;;;;;5059284;28;20485;-82
2022/05/28 09:23:27;;;;;;;16.10;3.60;;;;;;;;;;5058100;28;20425;-83
2022/05/28 09:25:55;;;;;;;14.20;3.50;;;;;;;;;;5058433;28;20852;-83
2022/05/28 09:28:28;;;;;;;11.88;3.55;;;;;;;;;;5054950;28;20417;-81
2022/05/28 09:31:01;;;;;;;11.68;3.10;;;;;;;;;;5057915;28;20456;-84
2022/05/28 09:33:33;;;;;;;11.55;3.45;;;;;;;;;;5049092;28;20456;-82
2022/05/28 09:36:05;;;;;;;12.52;3.00;;;;;;;;;;5059639;28;20427;-83
2022/05/28 09:38:36;;;;;;;13.35;4.18;;;;;;;;;;5056574;28;20425;-82
2022/05/28 09:41:12;;;;;;;17.00;4.50;;;;;;;;;;5060288;28;20447;-83
2022/05/28 09:43:47;;;;;;;15.40;3.40;;;;;;;;;;5051945;28;20832;-82
2022/05/28 09:46:18;;;;;;;9.50;3.30;;;;;;;;;;5053040;28;20982;-81
2022/05/28 09:48:46;;;;;;;11.30;3.50;;;;;;;;;;5049202;28;20517;-81
2022/05/28 09:51:22;;;;;;;13.07;3.72;;;;;;;;;;5049647;28;20441;-81
2022/05/28 09:56:36;;;;;;;11.33;3.37;;;;;;;;;;5056065;28;20422;-81
2022/05/28 09:59:06;;;;;;;12.20;3.22;;;;;;;;;;5051053;28;20520;-82
2022/05/28 10:01:34;;;;;;;10.13;2.97;;;;;;;;;;5052651;28;20772;-82
2022/05/28 10:06:48;;;;;;;11.50;3.20;;;;;;;;;;5048506;28;21006;-81
2022/05/28 10:09:15;;;;;;;14.20;3.10;;;;;;;;;;5051574;28;20423;-81
2022/05/28 10:11:52;;;;;;;11.97;3.20;;;;;;;;;;5056007;28;20459;-82
2022/05/28 10:14:20;;;;;;;11.43;3.03;;;;;;;;;;5053287;28;20452;-82
2022/05/28 10:16:48;;;;;;;12.85;3.30;;;;;;;;;;5052638;28;20417;-82
2022/05/28 10:19:19;;;;;;;11.65;3.42;;;;;;;;;;5051179;28;20902;-82
2022/05/28 10:21:50;;;;;;;10.93;3.50;;;;;;;;;;5047566;28;20410;-82
2022/05/28 10:24:18;;;;;;;14.90;4.20;;;;;;;;;;5044639;28;20421;-82
2022/05/28 10:26:46;;;;;;;14.13;3.65;;;;;;;;;;5047368;28;21245;-80
2022/05/28 10:29:17;;;;;;;15.50;4.38;;;;;;;;;;5052567;28;20417;-81
2022/05/28 10:31:46;;;;;;;15.32;4.05;;;;;;;;;;5046008;28;20405;-82
2022/05/28 10:34:22;;;;;;;11.55;3.95;;;;;;;;;;5046849;28;20433;-83
2022/05/28 10:36:48;;;;;;;17.63;4.10;;;;;;;;;;5044241;28;20437;-81
2022/05/28 10:39:17;;;;;;;17.05;4.63;;;;;;;;;;5050136;28;20456;-82
2022/05/28 10:41:44;;;;;;;11.05;3.65;;;;;;;;;;5054733;28;20405;-80
2022/05/28 10:44:12;;;;;;;17.05;4.28;;;;;;;;;;5048466;28;20437;-80
2022/05/28 10:46:51;;;;;;;14.70;4.43;;;;;;;;;;5055830;28;20434;-81
2022/05/28 10:49:29;;;;;;;12.02;3.20;;;;;;;;;;5052578;28;20433;-81
2022/05/28 10:51:58;;;;;;;9.65;3.22;;;;;;;;;;5052914;28;20405;-80
2022/05/28 10:54:29;;;;;;;11.57;2.90;;;;;;;;;;5051987;28;20965;-81
2022/05/28 10:57:09;;;;;;;14.25;3.40;;;;;;;;;;5051545;28;20409;-81
2022/05/28 10:59:56;;;;;;;12.55;3.50;;;;;;;;;;5051041;28;20433;-79
2022/05/28 11:02:44;;;;;;;10.93;3.65;;;;;;;;;;5047913;28;20992;-82
2022/05/28 11:05:16;;;;;;;11.03;3.33;;;;;;;;;;5042329;28;20431;-80
2022/05/28 11:07:51;;;;;;;14.27;3.47;;;;;;;;;;5047847;28;20490;-80
2022/05/28 11:10:23;;;;;;;12.85;3.08;;;;;;;;;;5052653;28;20453;-80
2022/05/28 11:13:04;;;;;;;9.43;2.92;;;;;;;;;;5043967;28;20472;-81
2022/05/28 11:15:33;;;;;;;13.27;3.40;;;;;;;;;;5051459;28;20960;-79
2022/05/28 11:18:11;;;;;;;13.20;2.80;;;;;;;;;;5048368;28;20417;-78
2022/05/28 11:20:40;;;;;;;10.40;3.00;;;;;;;;;;5052161;28;20493;-81
2022/05/28 11:23:15;;;;;;;11.30;3.15;;;;;;;;;;5053936;28;20427;-81
2022/05/28 11:25:46;;;;;;;9.25;2.90;;;;;;;;;;5043632;28;20507;-81
2022/05/28 11:28:22;;;;;;;8.38;2.60;;;;;;;;;;5049973;28;20512;-77
2022/05/28 11:30:51;;;;;;;10.13;2.58;;;;;;;;;;5049556;28;20442;-80
2022/05/28 11:33:20;;;;;;;9.25;2.47;;;;;;;;;;5047830;28;20433;-82
2022/05/28 11:35:48;;;;;;;8.88;2.50;;;;;;;;;;5047391;28;20444;-80
2022/05/28 11:38:18;;;;;;;11.33;3.30;;;;;;;;;;5050407;28;20421;-80
2022/05/28 11:40:54;;;;;;;15.18;3.53;;;;;;;;;;5043854;28;20910;-80
2022/05/28 11:43:23;;;;;;;8.63;2.85;;;;;;;;;;5042219;28;20427;-82
2022/05/28 11:45:52;;;;;;;11.65;3.15;;;;;;;;;;5046115;28;20450;-80
2022/05/28 11:48:24;;;;;;;11.55;2.90;;;;;;;;;;5046970;28;20802;-80
2022/05/28 11:53:41;;;;;;;8.70;2.50;;;;;;;;;;5050564;28;20424;-81
2022/05/28 11:56:11;;;;;;;14.20;2.90;;;;;;;;;;5052755;28;20512;-80
2022/05/28 11:58:41;;;;;;;10.93;3.17;;;;;;;;;;5049166;28;20921;-82
2022/05/28 12:01:10;;;;;;;9.95;2.60;;;;;;;;;;5042558;28;20456;-81
2022/05/28 12:03:38;;;;;;;9.20;2.10;;;;;;;;;;5054815;28;20436;-81
2022/05/28 12:06:14;;;;;;;10.40;2.47;;;;;;;;;;5047416;28;20433;-81
2022/05/28 12:08:41;;;;;;;7.35;2.33;;;;;;;;;;5055324;28;20496;-82
2022/05/28 12:11:09;;;;;;;10.83;2.47;;;;;;;;;;5047910;28;20433;-83
2022/05/28 12:13:45;;;;;;;9.07;2.90;;;;;;;;;;5054397;28;20430;-83
2022/05/28 12:16:13;;;;;;;8.93;2.50;;;;;;;;;;5049116;28;20433;-81
2022/05/28 12:18:42;;;;;;;8.50;2.80;;;;;;;;;;5052460;28;20434;-81
2022/05/28 12:21:08;;;;;;;9.80;2.30;;;;;;;;;;5048853;28;20505;-81
2022/05/28 12:23:36;;;;;;;4.95;2.30;;;;;;;;;;5050080;28;20423;-82
2022/05/28 12:26:10;;;;;;;10.90;3.10;;;;;;;;;;5047709;28;20452;-81
2022/05/28 12:28:43;;;;;;;8.80;3.13;;;;;;;;;;5049564;28;20513;-81
2022/05/28 12:31:10;;;;;;;8.18;2.95;;;;;;;;;;5049473;28;20441;-80
2022/05/28 12:33:49;;;;;;;8.13;2.47;;;;;;;;;;5051434;28;20421;-80
2022/05/28 12:36:19;;;;;;;7.75;2.78;;;;;;;;;;5052406;28;20425;-82
2022/05/28 12:38:50;;;;;;;6.53;2.30;;;;;;;;;;5052120;28;20453;-80
2022/05/28 12:41:18;;;;;;;4.50;2.00;;;;;;;;;;5050864;28;20494;-81
2022/05/28 12:43:45;;;;;;;10.77;2.90;;;;;;;;;;5052344;28;20417;-80
2022/05/28 12:46:13;;;;;;;8.70;2.30;;;;;;;;;;5053938;28;20987;-82
2022/05/28 12:48:40;;;;;;;8.93;2.72;;;;;;;;;;5051478;28;20428;-82
2022/05/28 12:51:18;;;;;;;9.77;2.63;;;;;;;;;;5049673;28;20429;-82
2022/05/28 12:53:48;;;;;;;10.80;2.10;;;;;;;;;;5053600;28;20961;-79
2022/05/28 12:56:22;;;;;;;8.53;2.70;;;;;;;;;;5054184;28;20436;-83
2022/05/28 12:58:48;;;;;;;12.33;3.03;;;;;;;;;;5052708;28;20434;-85
2022/05/28 13:01:18;;;;;;;41.20;6.70;;;;;;;;;;5050797;28;20435;-82
2022/05/28 13:03:45;;;;;;;13.98;3.78;;;;;;;;;;5053031;28;20417;-82
2022/05/28 13:06:12;;;;;;;11.98;2.35;;;;;;;;;;5053732;28;20421;-82
2022/05/28 13:08:45;;;;;;;12.80;2.58;;;;;;;;;;5052117;28;20776;-82
2022/05/28 13:11:22;;;;;;;9.27;2.70;;;;;;;;;;5053152;28;20435;-83
2022/05/28 13:14:03;;;;;;;10.85;2.20;;;;;;;;;;5053655;28;20902;-81
2022/05/28 13:16:35;;;;;;;7.78;2.80;;;;;;;;;;5045559;28;20498;-82
2022/05/28 13:19:14;;;;;;;8.32;2.65;;;;;;;;;;5049232;28;20498;-81
2022/05/28 13:21:57;;;;;;;6.82;2.10;;;;;;;;;;5051490;28;20437;-81
2022/05/28 13:24:36;;;;;;;7.43;2.38;;;;;;;;;;5049489;28;20440;-82
2022/05/28 13:27:11;;;;;;;15.55;2.72;;;;;;;;;;5052161;28;20409;-82
2022/05/28 13:29:46;;;;;;;6.90;2.17;;;;;;;;;;5055431;28;20499;-81
2022/05/28 13:32:15;;;;;;;7.07;2.67;;;;;;;;;;5052693;28;20518;-82
2022/05/28 13:34:41;;;;;;;5.85;2.13;;;;;;;;;;5056166;28;20448;-81
2022/05/28 13:37:15;;;;;;;8.25;2.50;;;;;;;;;;5052022;28;20612;-81
2022/05/28 13:39:45;;;;;;;9.02;2.38;;;;;;;;;;5056068;28;20437;-81
2022/05/28 13:42:13;;;;;;;9.82;3.03;;;;;;;;;;5054133;28;20409;-83
2022/05/28 13:44:42;;;;;;;11.45;2.58;;;;;;;;;;5054068;28;20433;-81
2022/05/28 13:47:09;;;;;;;7.78;2.58;;;;;;;;;;5052400;28;20548;-82
2022/05/28 13:49:37;;;;;;;11.30;2.70;;;;;;;;;;5054665;28;20413;-82
2022/05/28 13:52:07;;;;;;;8.25;2.28;;;;;;;;;;5043938;28;20506;-83
2022/05/28 13:54:34;;;;;;;10.98;3.00;;;;;;;;;;5049495;28;20869;-82
2022/05/28 13:57:02;;;;;;;13.48;2.78;;;;;;;;;;5050310;28;20419;-81
2022/05/28 13:59:32;;;;;;;11.25;3.30;;;;;;;;;;5051079;28;20436;-82
2022/05/28 14:01:59;;;;;;;10.23;2.92;;;;;;;;;;5044309;28;20425;-82
2022/05/28 14:04:29;;;;;;;9.13;2.42;;;;;;;;;;5050854;28;20480;-82
2022/05/28 14:06:58;;;;;;;7.40;2.10;;;;;;;;;;5049256;28;20461;-82
2022/05/28 14:09:29;;;;;;;5.85;2.40;;;;;;;;;;5052506;28;20445;-83
2022/05/28 14:11:56;;;;;;;7.80;2.40;;;;;;;;;;5050321;28;21113;-82
2022/05/28 14:14:25;;;;;;;4.32;1.42;;;;;;;;;;5051130;28;20977;-83
2022/05/28 14:16:52;;;;;;;6.25;1.80;;;;;;;;;;5055391;28;20535;-81
2022/05/28 14:19:21;;;;;;;9.23;2.33;;;;;;;;;;5048181;28;20437;-81
2022/05/28 14:21:52;;;;;;;4.70;1.50;;;;;;;;;;5050714;28;20410;-82
2022/05/28 14:24:20;;;;;;;4.83;1.50;;;;;;;;;;5051846;28;20437;-81
2022/05/28 14:26:48;;;;;;;6.10;1.88;;;;;;;;;;5051718;28;20489;-81
2022/05/28 14:29:15;;;;;;;4.97;1.60;;;;;;;;;;5052087;28;20536;-80
2022/05/28 14:31:43;;;;;;;5.95;1.90;;;;;;;;;;5049954;28;20499;-81
2022/05/28 14:34:10;;;;;;;5.55;1.90;;;;;;;;;;5049751;28;20487;-82
2022/05/28 14:36:37;;;;;;;5.90;2.10;;;;;;;;;;5051877;28;20429;-80
2022/05/28 14:39:11;;;;;;;5.68;1.30;;;;;;;;;;5047896;28;20440;-81
2022/05/28 14:41:40;;;;;;;8.50;2.30;;;;;;;;;;5050402;28;20458;-80
2022/05/28 14:44:12;;;;;;;5.38;2.10;;;;;;;;;;5053531;28;20459;-82
2022/05/28 14:46:40;;;;;;;5.40;1.83;;;;;;;;;;5051210;28;20455;-82
2022/05/28 14:49:16;;;;;;;6.78;2.30;;;;;;;;;;5054351;28;20425;-82
2022/05/28 14:51:43;;;;;;;8.70;2.20;;;;;;;;;;5050338;22;20455;-82